sensor_id;sensor_type;location;lat;lon;timestamp;P1;durP1;ratioP1;P2;durP2;ratioP2
51558;SDS011;61650;48.882;2.092;2022-08-21T00:01:55;6.80;;;4.00;;
51558;SDS011;61650;48.882;2.092;2022-08-21T00:07:06;5.90;;;4.40;;
51558;SDS011;61650;48.882;2.092;2022-08-21T00:09:31;7.73;;;4.17;;
51558;SDS011;61650;48.882;2.092;2022-08-21T00:11:57;6.10;;;4.03;;
51558;SDS011;61650;48.882;2.092;2022-08-21T00:14:22;7.63;;;4.70;;
51558;SDS011;61650;48.882;2.092;2022-08-21T00:16:48;6.00;;;4.53;;
51558;SDS011;61650;48.882;2.092;2022-08-21T00:19:13;5.60;;;4.20;;
51558;SDS011;61650;48.882;2.092;2022-08-21T00:21:39;5.43;;;3.93;;
51558;SDS011;61650;48.882;2.092;2022-08-21T00:24:05;5.43;;;4.40;;
51558;SDS011;61650;48.882;2.092;2022-08-21T00:26:30;5.57;;;4.07;;
51558;SDS011;61650;48.882;2.092;2022-08-21T00:28:56;6.67;;;4.70;;
51558;SDS011;61650;48.882;2.092;2022-08-21T00:31:22;5.50;;;4.50;;
51558;SDS011;61650;48.882;2.092;2022-08-21T00:33:47;5.20;;;4.70;;
51558;SDS011;61650;48.882;2.092;2022-08-21T00:36:13;6.17;;;4.70;;
51558;SDS011;61650;48.882;2.092;2022-08-21T00:38:38;5.30;;;4.27;;
51558;SDS011;61650;48.882;2.092;2022-08-21T00:41:06;5.13;;;4.67;;
51558;SDS011;61650;48.882;2.092;2022-08-21T00:43:34;5.03;;;4.53;;
51558;SDS011;61650;48.882;2.092;2022-08-21T00:46:02;5.33;;;4.40;;
51558;SDS011;61650;48.882;2.092;2022-08-21T00:48:29;7.53;;;5.70;;
51558;SDS011;61650;48.882;2.092;2022-08-21T00:51:06;6.40;;;4.70;;
51558;SDS011;61650;48.882;2.092;2022-08-21T00:53:39;9.27;;;5.17;;
51558;SDS011;61650;48.882;2.092;2022-08-21T00:56:09;7.63;;;5.17;;
51558;SDS011;61650;48.882;2.092;2022-08-21T00:58:37;6.93;;;4.60;;
51558;SDS011;61650;48.882;2.092;2022-08-21T01:01:06;5.30;;;4.80;;
51558;SDS011;61650;48.882;2.092;2022-08-21T01:03:32;9.07;;;4.77;;
51558;SDS011;61650;48.882;2.092;2022-08-21T01:05:59;5.77;;;5.10;;
51558;SDS011;61650;48.882;2.092;2022-08-21T01:08:24;7.40;;;5.00;;
51558;SDS011;61650;48.882;2.092;2022-08-21T01:10:51;7.33;;;5.37;;
51558;SDS011;61650;48.882;2.092;2022-08-21T01:13:18;5.63;;;5.13;;
51558;SDS011;61650;48.882;2.092;2022-08-21T01:15:46;7.83;;;4.70;;
51558;SDS011;61650;48.882;2.092;2022-08-21T01:18:14;8.40;;;5.30;;
51558;SDS011;61650;48.882;2.092;2022-08-21T01:20:43;6.50;;;4.97;;
51558;SDS011;61650;48.882;2.092;2022-08-21T01:23:14;5.40;;;4.73;;
51558;SDS011;61650;48.882;2.092;2022-08-21T01:25:40;6.07;;;5.23;;
51558;SDS011;61650;48.882;2.092;2022-08-21T01:28:11;5.83;;;4.90;;
51558;SDS011;61650;48.882;2.092;2022-08-21T01:30:38;6.87;;;4.80;;
51558;SDS011;61650;48.882;2.092;2022-08-21T01:33:05;5.80;;;5.20;;
51558;SDS011;61650;48.882;2.092;2022-08-21T01:35:31;6.50;;;5.20;;
51558;SDS011;61650;48.882;2.092;2022-08-21T01:37:56;7.77;;;5.40;;
51558;SDS011;61650;48.882;2.092;2022-08-21T01:40:22;6.53;;;4.83;;
51558;SDS011;61650;48.882;2.092;2022-08-21T01:42:48;6.87;;;5.47;;
51558;SDS011;61650;48.882;2.092;2022-08-21T01:45:14;7.03;;;5.33;;
51558;SDS011;61650;48.882;2.092;2022-08-21T01:47:41;5.33;;;4.87;;
51558;SDS011;61650;48.882;2.092;2022-08-21T01:50:09;5.80;;;5.00;;
51558;SDS011;61650;48.882;2.092;2022-08-21T01:52:36;8.30;;;5.27;;
51558;SDS011;61650;48.882;2.092;2022-08-21T01:55:03;9.33;;;5.20;;
51558;SDS011;61650;48.882;2.092;2022-08-21T01:57:30;6.67;;;5.27;;
51558;SDS011;61650;48.882;2.092;2022-08-21T01:59:57;5.53;;;4.80;;
51558;SDS011;61650;48.882;2.092;2022-08-21T02:02:23;5.57;;;5.00;;
51558;SDS011;61650;48.882;2.092;2022-08-21T02:04:48;6.30;;;5.70;;
51558;SDS011;61650;48.882;2.092;2022-08-21T02:07:14;6.13;;;5.60;;
51558;SDS011;61650;48.882;2.092;2022-08-21T02:09:40;6.37;;;4.80;;
51558;SDS011;61650;48.882;2.092;2022-08-21T02:12:07;6.07;;;4.87;;
51558;SDS011;61650;48.882;2.092;2022-08-21T02:14:34;5.93;;;5.07;;
51558;SDS011;61650;48.882;2.092;2022-08-21T02:17:00;5.87;;;5.07;;
51558;SDS011;61650;48.882;2.092;2022-08-21T02:19:26;6.03;;;5.07;;
51558;SDS011;61650;48.882;2.092;2022-08-21T02:21:51;9.33;;;5.10;;
51558;SDS011;61650;48.882;2.092;2022-08-21T02:24:17;7.47;;;4.90;;
51558;SDS011;61650;48.882;2.092;2022-08-21T02:26:43;6.10;;;5.40;;
51558;SDS011;61650;48.882;2.092;2022-08-21T02:29:08;7.03;;;5.20;;
51558;SDS011;61650;48.882;2.092;2022-08-21T02:31:34;6.80;;;4.60;;
51558;SDS011;61650;48.882;2.092;2022-08-21T02:34:00;8.90;;;5.87;;
51558;SDS011;61650;48.882;2.092;2022-08-21T02:36:26;5.27;;;4.60;;
51558;SDS011;61650;48.882;2.092;2022-08-21T02:38:52;6.33;;;5.10;;
51558;SDS011;61650;48.882;2.092;2022-08-21T02:41:19;8.40;;;5.07;;
51558;SDS011;61650;48.882;2.092;2022-08-21T02:43:46;6.00;;;5.40;;
51558;SDS011;61650;48.882;2.092;2022-08-21T02:46:13;6.00;;;5.07;;
51558;SDS011;61650;48.882;2.092;2022-08-21T02:48:40;8.07;;;4.97;;
51558;SDS011;61650;48.882;2.092;2022-08-21T02:51:10;7.93;;;4.77;;
51558;SDS011;61650;48.882;2.092;2022-08-21T02:53:37;6.73;;;4.87;;
51558;SDS011;61650;48.882;2.092;2022-08-21T02:56:04;4.97;;;4.47;;
51558;SDS011;61650;48.882;2.092;2022-08-21T02:58:36;7.77;;;5.13;;
51558;SDS011;61650;48.882;2.092;2022-08-21T03:01:12;6.67;;;4.97;;
51558;SDS011;61650;48.882;2.092;2022-08-21T03:03:40;6.57;;;4.30;;
51558;SDS011;61650;48.882;2.092;2022-08-21T03:06:09;5.33;;;4.83;;
51558;SDS011;61650;48.882;2.092;2022-08-21T03:08:36;6.43;;;4.60;;
51558;SDS011;61650;48.882;2.092;2022-08-21T03:11:02;5.50;;;4.60;;
51558;SDS011;61650;48.882;2.092;2022-08-21T03:13:28;4.60;;;4.20;;
51558;SDS011;61650;48.882;2.092;2022-08-21T03:15:55;4.47;;;3.73;;
51558;SDS011;61650;48.882;2.092;2022-08-21T03:18:21;8.07;;;4.40;;
51558;SDS011;61650;48.882;2.092;2022-08-21T03:20:47;7.43;;;4.73;;
51558;SDS011;61650;48.882;2.092;2022-08-21T03:23:14;5.93;;;4.30;;
51558;SDS011;61650;48.882;2.092;2022-08-21T03:25:40;5.10;;;4.47;;
51558;SDS011;61650;48.882;2.092;2022-08-21T03:28:10;7.03;;;4.30;;
51558;SDS011;61650;48.882;2.092;2022-08-21T03:30:43;4.80;;;3.57;;
51558;SDS011;61650;48.882;2.092;2022-08-21T03:33:10;5.17;;;4.23;;
51558;SDS011;61650;48.882;2.092;2022-08-21T03:35:36;5.70;;;4.00;;
51558;SDS011;61650;48.882;2.092;2022-08-21T03:38:02;4.97;;;4.07;;
51558;SDS011;61650;48.882;2.092;2022-08-21T03:40:28;5.07;;;4.23;;
51558;SDS011;61650;48.882;2.092;2022-08-21T03:42:54;4.80;;;3.97;;
51558;SDS011;61650;48.882;2.092;2022-08-21T03:45:19;5.57;;;4.10;;
51558;SDS011;61650;48.882;2.092;2022-08-21T03:47:53;5.93;;;4.00;;
51558;SDS011;61650;48.882;2.092;2022-08-21T03:50:22;6.37;;;4.60;;
51558;SDS011;61650;48.882;2.092;2022-08-21T03:52:48;7.17;;;4.20;;
51558;SDS011;61650;48.882;2.092;2022-08-21T03:55:14;8.97;;;5.03;;
51558;SDS011;61650;48.882;2.092;2022-08-21T03:57:40;6.00;;;4.07;;
51558;SDS011;61650;48.882;2.092;2022-08-21T04:00:05;5.73;;;3.63;;
51558;SDS011;61650;48.882;2.092;2022-08-21T04:02:34;7.17;;;4.40;;
51558;SDS011;61650;48.882;2.092;2022-08-21T04:05:00;5.87;;;3.70;;
51558;SDS011;61650;48.882;2.092;2022-08-21T04:07:25;5.50;;;4.00;;
51558;SDS011;61650;48.882;2.092;2022-08-21T04:09:51;5.87;;;3.50;;
51558;SDS011;61650;48.882;2.092;2022-08-21T04:12:17;5.10;;;3.90;;
51558;SDS011;61650;48.882;2.092;2022-08-21T04:14:42;4.80;;;3.90;;
51558;SDS011;61650;48.882;2.092;2022-08-21T04:17:08;6.60;;;4.20;;
51558;SDS011;61650;48.882;2.092;2022-08-21T04:19:33;4.77;;;3.67;;
51558;SDS011;61650;48.882;2.092;2022-08-21T04:21:59;3.77;;;3.37;;
51558;SDS011;61650;48.882;2.092;2022-08-21T04:24:24;6.07;;;3.80;;
51558;SDS011;61650;48.882;2.092;2022-08-21T04:26:50;5.13;;;3.83;;
51558;SDS011;61650;48.882;2.092;2022-08-21T04:29:15;5.07;;;4.07;;
51558;SDS011;61650;48.882;2.092;2022-08-21T04:31:41;7.17;;;4.60;;
51558;SDS011;61650;48.882;2.092;2022-08-21T04:34:08;6.80;;;3.50;;
51558;SDS011;61650;48.882;2.092;2022-08-21T04:36:34;4.63;;;3.40;;
51558;SDS011;61650;48.882;2.092;2022-08-21T04:38:59;5.13;;;3.90;;
51558;SDS011;61650;48.882;2.092;2022-08-21T04:41:25;3.77;;;3.40;;
51558;SDS011;61650;48.882;2.092;2022-08-21T04:43:51;4.87;;;3.60;;
51558;SDS011;61650;48.882;2.092;2022-08-21T04:46:16;4.30;;;3.60;;
51558;SDS011;61650;48.882;2.092;2022-08-21T04:48:42;7.70;;;3.70;;
51558;SDS011;61650;48.882;2.092;2022-08-21T04:53:40;5.60;;;3.40;;
51558;SDS011;61650;48.882;2.092;2022-08-21T04:56:14;6.73;;;3.43;;
51558;SDS011;61650;48.882;2.092;2022-08-21T04:58:47;6.07;;;3.87;;
51558;SDS011;61650;48.882;2.092;2022-08-21T05:01:15;4.13;;;3.73;;
51558;SDS011;61650;48.882;2.092;2022-08-21T05:03:44;4.00;;;3.60;;
51558;SDS011;61650;48.882;2.092;2022-08-21T05:06:13;6.67;;;3.67;;
51558;SDS011;61650;48.882;2.092;2022-08-21T05:08:41;5.20;;;3.50;;
51558;SDS011;61650;48.882;2.092;2022-08-21T05:11:10;6.43;;;3.90;;
51558;SDS011;61650;48.882;2.092;2022-08-21T05:13:36;7.10;;;4.03;;
51558;SDS011;61650;48.882;2.092;2022-08-21T05:16:02;4.30;;;3.00;;
51558;SDS011;61650;48.882;2.092;2022-08-21T05:18:28;8.07;;;3.67;;
51558;SDS011;61650;48.882;2.092;2022-08-21T05:20:53;4.73;;;3.40;;
51558;SDS011;61650;48.882;2.092;2022-08-21T05:23:19;4.53;;;3.30;;
51558;SDS011;61650;48.882;2.092;2022-08-21T05:25:45;4.50;;;3.70;;
51558;SDS011;61650;48.882;2.092;2022-08-21T05:28:10;5.63;;;3.93;;
51558;SDS011;61650;48.882;2.092;2022-08-21T05:30:37;5.73;;;3.73;;
51558;SDS011;61650;48.882;2.092;2022-08-21T05:33:04;5.80;;;3.60;;
51558;SDS011;61650;48.882;2.092;2022-08-21T05:35:31;5.73;;;3.03;;
51558;SDS011;61650;48.882;2.092;2022-08-21T05:37:58;6.63;;;4.03;;
51558;SDS011;61650;48.882;2.092;2022-08-21T05:40:25;4.20;;;3.80;;
51558;SDS011;61650;48.882;2.092;2022-08-21T05:42:51;6.93;;;3.80;;
51558;SDS011;61650;48.882;2.092;2022-08-21T05:45:18;4.33;;;3.73;;
51558;SDS011;61650;48.882;2.092;2022-08-21T05:47:44;4.70;;;3.13;;
51558;SDS011;61650;48.882;2.092;2022-08-21T05:50:10;4.50;;;3.27;;
51558;SDS011;61650;48.882;2.092;2022-08-21T05:52:36;7.43;;;3.83;;
51558;SDS011;61650;48.882;2.092;2022-08-21T05:55:02;5.37;;;3.70;;
51558;SDS011;61650;48.882;2.092;2022-08-21T05:57:28;6.17;;;3.73;;
51558;SDS011;61650;48.882;2.092;2022-08-21T05:59:53;3.83;;;3.53;;
51558;SDS011;61650;48.882;2.092;2022-08-21T06:02:20;4.63;;;3.20;;
51558;SDS011;61650;48.882;2.092;2022-08-21T06:04:46;8.50;;;4.20;;
51558;SDS011;61650;48.882;2.092;2022-08-21T06:07:12;3.50;;;3.20;;
51558;SDS011;61650;48.882;2.092;2022-08-21T06:09:38;5.77;;;3.10;;
51558;SDS011;61650;48.882;2.092;2022-08-21T06:12:04;8.13;;;3.60;;
51558;SDS011;61650;48.882;2.092;2022-08-21T06:14:31;4.97;;;3.33;;
51558;SDS011;61650;48.882;2.092;2022-08-21T06:17:04;8.57;;;3.33;;
51558;SDS011;61650;48.882;2.092;2022-08-21T06:19:32;4.40;;;3.00;;
51558;SDS011;61650;48.882;2.092;2022-08-21T06:21:58;6.50;;;3.57;;
51558;SDS011;61650;48.882;2.092;2022-08-21T06:24:24;5.50;;;3.67;;
51558;SDS011;61650;48.882;2.092;2022-08-21T06:26:50;5.50;;;3.60;;
51558;SDS011;61650;48.882;2.092;2022-08-21T06:29:16;5.07;;;3.37;;
51558;SDS011;61650;48.882;2.092;2022-08-21T06:31:42;5.20;;;3.20;;
51558;SDS011;61650;48.882;2.092;2022-08-21T06:34:09;4.83;;;3.63;;
51558;SDS011;61650;48.882;2.092;2022-08-21T06:36:35;4.73;;;4.20;;
51558;SDS011;61650;48.882;2.092;2022-08-21T06:39:01;6.10;;;3.90;;
51558;SDS011;61650;48.882;2.092;2022-08-21T06:41:27;9.50;;;3.93;;
51558;SDS011;61650;48.882;2.092;2022-08-21T06:43:53;4.83;;;4.03;;
51558;SDS011;61650;48.882;2.092;2022-08-21T06:46:20;6.23;;;4.53;;
51558;SDS011;61650;48.882;2.092;2022-08-21T06:48:45;5.60;;;4.33;;
51558;SDS011;61650;48.882;2.092;2022-08-21T06:51:11;5.40;;;4.40;;
51558;SDS011;61650;48.882;2.092;2022-08-21T06:53:37;8.10;;;4.70;;
51558;SDS011;61650;48.882;2.092;2022-08-21T06:56:03;6.67;;;4.80;;
51558;SDS011;61650;48.882;2.092;2022-08-21T06:58:29;8.10;;;4.53;;
51558;SDS011;61650;48.882;2.092;2022-08-21T07:00:55;8.37;;;6.10;;
51558;SDS011;61650;48.882;2.092;2022-08-21T07:03:24;6.60;;;4.60;;
51558;SDS011;61650;48.882;2.092;2022-08-21T07:05:53;5.67;;;4.27;;
51558;SDS011;61650;48.882;2.092;2022-08-21T07:08:20;8.60;;;4.60;;
51558;SDS011;61650;48.882;2.092;2022-08-21T07:10:46;6.60;;;4.40;;
51558;SDS011;61650;48.882;2.092;2022-08-21T07:13:13;4.70;;;4.20;;
51558;SDS011;61650;48.882;2.092;2022-08-21T07:15:39;6.90;;;4.40;;
51558;SDS011;61650;48.882;2.092;2022-08-21T07:18:07;7.90;;;5.03;;
51558;SDS011;61650;48.882;2.092;2022-08-21T07:20:33;6.93;;;5.03;;
51558;SDS011;61650;48.882;2.092;2022-08-21T07:22:59;6.70;;;4.30;;
51558;SDS011;61650;48.882;2.092;2022-08-21T07:25:27;6.73;;;4.97;;
51558;SDS011;61650;48.882;2.092;2022-08-21T07:27:53;5.73;;;4.70;;
51558;SDS011;61650;48.882;2.092;2022-08-21T07:30:21;4.50;;;3.93;;
51558;SDS011;61650;48.882;2.092;2022-08-21T07:32:47;5.50;;;4.47;;
51558;SDS011;61650;48.882;2.092;2022-08-21T07:35:14;8.20;;;4.80;;
51558;SDS011;61650;48.882;2.092;2022-08-21T07:37:40;8.83;;;3.93;;
51558;SDS011;61650;48.882;2.092;2022-08-21T07:40:06;7.87;;;4.40;;
51558;SDS011;61650;48.882;2.092;2022-08-21T07:42:32;9.83;;;4.33;;
51558;SDS011;61650;48.882;2.092;2022-08-21T07:44:57;6.00;;;4.40;;
51558;SDS011;61650;48.882;2.092;2022-08-21T07:47:23;6.93;;;4.40;;
51558;SDS011;61650;48.882;2.092;2022-08-21T07:49:48;8.57;;;4.10;;
51558;SDS011;61650;48.882;2.092;2022-08-21T07:52:14;6.67;;;4.10;;
51558;SDS011;61650;48.882;2.092;2022-08-21T07:54:40;7.97;;;4.20;;
51558;SDS011;61650;48.882;2.092;2022-08-21T07:57:05;6.17;;;3.70;;
51558;SDS011;61650;48.882;2.092;2022-08-21T07:59:31;5.47;;;3.67;;
51558;SDS011;61650;48.882;2.092;2022-08-21T08:01:56;7.17;;;4.10;;
51558;SDS011;61650;48.882;2.092;2022-08-21T08:04:22;10.13;;;4.40;;
51558;SDS011;61650;48.882;2.092;2022-08-21T08:06:48;3.93;;;3.53;;
51558;SDS011;61650;48.882;2.092;2022-08-21T08:09:14;9.00;;;4.77;;
51558;SDS011;61650;48.882;2.092;2022-08-21T08:11:41;4.83;;;4.03;;
51558;SDS011;61650;48.882;2.092;2022-08-21T08:14:08;7.17;;;3.70;;
51558;SDS011;61650;48.882;2.092;2022-08-21T08:16:34;8.60;;;4.43;;
51558;SDS011;61650;48.882;2.092;2022-08-21T08:19:00;6.20;;;4.00;;
51558;SDS011;61650;48.882;2.092;2022-08-21T08:21:25;7.87;;;4.47;;
51558;SDS011;61650;48.882;2.092;2022-08-21T08:23:52;5.50;;;3.50;;
51558;SDS011;61650;48.882;2.092;2022-08-21T08:26:18;9.10;;;4.13;;
51558;SDS011;61650;48.882;2.092;2022-08-21T08:28:44;4.87;;;3.63;;
51558;SDS011;61650;48.882;2.092;2022-08-21T08:31:11;9.87;;;4.33;;
51558;SDS011;61650;48.882;2.092;2022-08-21T08:33:37;7.20;;;3.57;;
51558;SDS011;61650;48.882;2.092;2022-08-21T08:36:03;5.97;;;4.00;;
51558;SDS011;61650;48.882;2.092;2022-08-21T08:38:29;5.33;;;3.63;;
51558;SDS011;61650;48.882;2.092;2022-08-21T08:41:07;5.90;;;4.20;;
51558;SDS011;61650;48.882;2.092;2022-08-21T08:43:39;7.40;;;4.07;;
51558;SDS011;61650;48.882;2.092;2022-08-21T08:46:10;8.20;;;3.83;;
51558;SDS011;61650;48.882;2.092;2022-08-21T08:48:45;8.67;;;3.73;;
51558;SDS011;61650;48.882;2.092;2022-08-21T08:51:18;7.60;;;3.40;;
51558;SDS011;61650;48.882;2.092;2022-08-21T08:53:50;5.20;;;3.23;;
51558;SDS011;61650;48.882;2.092;2022-08-21T08:56:22;7.57;;;3.20;;
51558;SDS011;61650;48.882;2.092;2022-08-21T08:58:52;7.40;;;3.50;;
51558;SDS011;61650;48.882;2.092;2022-08-21T09:01:21;4.47;;;3.23;;
51558;SDS011;61650;48.882;2.092;2022-08-21T09:03:46;5.03;;;3.00;;
51558;SDS011;61650;48.882;2.092;2022-08-21T09:06:36;5.77;;;3.53;;
51558;SDS011;61650;48.882;2.092;2022-08-21T09:09:31;4.87;;;3.03;;
51558;SDS011;61650;48.882;2.092;2022-08-21T09:17:59;8.13;;;3.20;;
51558;SDS011;61650;48.882;2.092;2022-08-21T09:20:47;3.73;;;3.23;;
51558;SDS011;61650;48.882;2.092;2022-08-21T09:23:42;6.87;;;3.10;;
51558;SDS011;61650;48.882;2.092;2022-08-21T09:26:23;4.00;;;2.70;;
51558;SDS011;61650;48.882;2.092;2022-08-21T09:28:52;3.97;;;2.50;;
51558;SDS011;61650;48.882;2.092;2022-08-21T09:33:48;7.80;;;3.13;;
51558;SDS011;61650;48.882;2.092;2022-08-21T09:36:25;5.80;;;3.17;;
51558;SDS011;61650;48.882;2.092;2022-08-21T09:38:56;6.97;;;3.27;;
51558;SDS011;61650;48.882;2.092;2022-08-21T09:41:26;5.10;;;2.70;;
51558;SDS011;61650;48.882;2.092;2022-08-21T09:43:54;4.17;;;2.70;;
51558;SDS011;61650;48.882;2.092;2022-08-21T09:46:20;5.80;;;2.37;;
51558;SDS011;61650;48.882;2.092;2022-08-21T09:48:49;3.67;;;2.63;;
51558;SDS011;61650;48.882;2.092;2022-08-21T09:51:17;6.37;;;2.90;;
51558;SDS011;61650;48.882;2.092;2022-08-21T09:56:31;4.30;;;2.60;;
51558;SDS011;61650;48.882;2.092;2022-08-21T09:59:23;8.30;;;2.73;;
51558;SDS011;61650;48.882;2.092;2022-08-21T10:01:56;4.23;;;2.83;;
51558;SDS011;61650;48.882;2.092;2022-08-21T10:04:30;5.00;;;2.60;;
51558;SDS011;61650;48.882;2.092;2022-08-21T10:07:07;3.60;;;2.47;;
51558;SDS011;61650;48.882;2.092;2022-08-21T10:09:34;3.27;;;2.40;;
51558;SDS011;61650;48.882;2.092;2022-08-21T10:17:30;4.43;;;2.43;;
51558;SDS011;61650;48.882;2.092;2022-08-21T10:20:19;5.10;;;2.13;;
51558;SDS011;61650;48.882;2.092;2022-08-21T10:36:33;4.40;;;2.23;;
51558;SDS011;61650;48.882;2.092;2022-08-21T10:39:12;4.40;;;2.07;;
51558;SDS011;61650;48.882;2.092;2022-08-21T10:41:59;3.83;;;2.17;;
51558;SDS011;61650;48.882;2.092;2022-08-21T10:55:21;4.27;;;2.10;;
51558;SDS011;61650;48.882;2.092;2022-08-21T10:57:52;5.37;;;2.37;;
51558;SDS011;61650;48.882;2.092;2022-08-21T11:01:03;6.40;;;2.23;;
51558;SDS011;61650;48.882;2.092;2022-08-21T11:03:13;3.37;;;2.33;;
51558;SDS011;61650;48.882;2.092;2022-08-21T11:06:02;3.07;;;2.33;;
51558;SDS011;61650;48.882;2.092;2022-08-21T11:08:31;3.53;;;2.43;;
51558;SDS011;61650;48.882;2.092;2022-08-21T11:11:08;2.77;;;2.10;;
51558;SDS011;61650;48.882;2.092;2022-08-21T11:29:58;4.93;;;2.53;;
51558;SDS011;61650;48.882;2.092;2022-08-21T11:43:42;2.40;;;2.00;;
51558;SDS011;61650;48.882;2.092;2022-08-21T11:49:06;2.93;;;1.97;;
51558;SDS011;61650;48.882;2.092;2022-08-21T11:56:45;2.23;;;1.47;;
51558;SDS011;61650;48.882;2.092;2022-08-21T11:59:26;3.37;;;1.60;;
51558;SDS011;61650;48.882;2.092;2022-08-21T12:01:57;3.03;;;1.50;;
51558;SDS011;61650;48.882;2.092;2022-08-21T12:04:34;3.10;;;1.80;;
51558;SDS011;61650;48.882;2.092;2022-08-21T12:07:11;2.40;;;1.70;;
51558;SDS011;61650;48.882;2.092;2022-08-21T12:09:51;3.20;;;1.40;;
51558;SDS011;61650;48.882;2.092;2022-08-21T12:12:24;2.60;;;1.50;;
51558;SDS011;61650;48.882;2.092;2022-08-21T12:17:51;2.80;;;2.13;;
51558;SDS011;61650;48.882;2.092;2022-08-21T12:20:33;3.67;;;3.37;;
51558;SDS011;61650;48.882;2.092;2022-08-21T12:23:14;2.70;;;2.00;;
51558;SDS011;61650;48.882;2.092;2022-08-21T12:28:09;2.07;;;1.50;;
51558;SDS011;61650;48.882;2.092;2022-08-21T12:30:38;2.60;;;1.60;;
51558;SDS011;61650;48.882;2.092;2022-08-21T12:33:09;2.17;;;1.30;;
51558;SDS011;61650;48.882;2.092;2022-08-21T12:36:02;1.90;;;1.47;;
51558;SDS011;61650;48.882;2.092;2022-08-21T12:38:31;2.43;;;1.70;;
51558;SDS011;61650;48.882;2.092;2022-08-21T12:41:05;2.17;;;1.60;;
51558;SDS011;61650;48.882;2.092;2022-08-21T12:43:37;2.27;;;1.77;;
51558;SDS011;61650;48.882;2.092;2022-08-21T12:46:06;1.47;;;1.33;;
51558;SDS011;61650;48.882;2.092;2022-08-21T12:48:41;2.40;;;1.17;;
51558;SDS011;61650;48.882;2.092;2022-08-21T12:53:45;1.77;;;0.90;;
51558;SDS011;61650;48.882;2.092;2022-08-21T12:56:30;2.30;;;1.07;;
51558;SDS011;61650;48.882;2.092;2022-08-21T12:59:05;2.20;;;1.00;;
51558;SDS011;61650;48.882;2.092;2022-08-21T13:01:33;2.57;;;1.00;;
51558;SDS011;61650;48.882;2.092;2022-08-21T13:04:04;1.40;;;1.20;;
51558;SDS011;61650;48.882;2.092;2022-08-21T13:06:39;1.20;;;1.00;;
51558;SDS011;61650;48.882;2.092;2022-08-21T13:09:09;2.70;;;1.00;;
51558;SDS011;61650;48.882;2.092;2022-08-21T13:11:38;1.20;;;0.97;;
51558;SDS011;61650;48.882;2.092;2022-08-21T13:14:06;1.63;;;0.90;;
51558;SDS011;61650;48.882;2.092;2022-08-21T13:17:05;1.50;;;1.00;;
51558;SDS011;61650;48.882;2.092;2022-08-21T13:19:32;1.10;;;1.00;;
51558;SDS011;61650;48.882;2.092;2022-08-21T13:21:59;1.33;;;0.87;;
51558;SDS011;61650;48.882;2.092;2022-08-21T13:24:26;1.97;;;1.20;;
51558;SDS011;61650;48.882;2.092;2022-08-21T13:26:54;1.10;;;0.90;;
51558;SDS011;61650;48.882;2.092;2022-08-21T13:29:22;1.90;;;0.83;;
51558;SDS011;61650;48.882;2.092;2022-08-21T13:31:55;2.90;;;0.90;;
51558;SDS011;61650;48.882;2.092;2022-08-21T13:34:23;1.30;;;0.90;;
51558;SDS011;61650;48.882;2.092;2022-08-21T13:36:52;1.20;;;1.10;;
51558;SDS011;61650;48.882;2.092;2022-08-21T13:39:22;1.50;;;1.00;;
51558;SDS011;61650;48.882;2.092;2022-08-21T13:41:50;1.00;;;0.90;;
51558;SDS011;61650;48.882;2.092;2022-08-21T13:44:21;1.50;;;0.90;;
51558;SDS011;61650;48.882;2.092;2022-08-21T13:46:55;1.00;;;0.90;;
51558;SDS011;61650;48.882;2.092;2022-08-21T13:49:26;3.63;;;1.00;;
51558;SDS011;61650;48.882;2.092;2022-08-21T13:51:56;1.87;;;0.83;;
51558;SDS011;61650;48.882;2.092;2022-08-21T13:54:40;1.80;;;0.93;;
51558;SDS011;61650;48.882;2.092;2022-08-21T13:57:17;2.10;;;1.00;;
51558;SDS011;61650;48.882;2.092;2022-08-21T13:59:44;1.30;;;0.90;;
51558;SDS011;61650;48.882;2.092;2022-08-21T14:10:05;1.17;;;1.00;;
51558;SDS011;61650;48.882;2.092;2022-08-21T14:12:47;1.27;;;1.07;;
51558;SDS011;61650;48.882;2.092;2022-08-21T14:15:16;1.67;;;0.90;;
51558;SDS011;61650;48.882;2.092;2022-08-21T14:17:43;1.23;;;0.70;;
51558;SDS011;61650;48.882;2.092;2022-08-21T14:20:10;1.83;;;0.80;;
51558;SDS011;61650;48.882;2.092;2022-08-21T14:22:50;1.73;;;0.80;;
51558;SDS011;61650;48.882;2.092;2022-08-21T14:27:54;1.20;;;0.90;;
51558;SDS011;61650;48.882;2.092;2022-08-21T14:32:59;1.77;;;0.93;;
51558;SDS011;61650;48.882;2.092;2022-08-21T14:35:25;1.50;;;0.80;;
51558;SDS011;61650;48.882;2.092;2022-08-21T14:37:51;1.93;;;0.93;;
51558;SDS011;61650;48.882;2.092;2022-08-21T14:40:19;1.70;;;0.90;;
51558;SDS011;61650;48.882;2.092;2022-08-21T14:42:47;2.40;;;0.90;;
51558;SDS011;61650;48.882;2.092;2022-08-21T14:45:16;1.00;;;0.77;;
51558;SDS011;61650;48.882;2.092;2022-08-21T14:47:50;1.63;;;0.80;;
51558;SDS011;61650;48.882;2.092;2022-08-21T14:50:16;1.60;;;1.00;;
51558;SDS011;61650;48.882;2.092;2022-08-21T14:52:41;1.10;;;0.80;;
51558;SDS011;61650;48.882;2.092;2022-08-21T14:55:09;1.00;;;0.70;;
51558;SDS011;61650;48.882;2.092;2022-08-21T14:57:38;1.80;;;0.83;;
51558;SDS011;61650;48.882;2.092;2022-08-21T15:00:08;2.67;;;1.10;;
51558;SDS011;61650;48.882;2.092;2022-08-21T15:02:35;2.53;;;0.90;;
51558;SDS011;61650;48.882;2.092;2022-08-21T15:05:01;3.53;;;1.20;;
51558;SDS011;61650;48.882;2.092;2022-08-21T15:07:45;1.60;;;0.93;;
51558;SDS011;61650;48.882;2.092;2022-08-21T15:10:30;2.40;;;0.90;;
51558;SDS011;61650;48.882;2.092;2022-08-21T15:12:58;1.97;;;1.00;;
51558;SDS011;61650;48.882;2.092;2022-08-21T15:15:23;1.77;;;0.90;;
51558;SDS011;61650;48.882;2.092;2022-08-21T15:17:49;1.47;;;1.10;;
51558;SDS011;61650;48.882;2.092;2022-08-21T15:20:15;1.10;;;0.90;;
51558;SDS011;61650;48.882;2.092;2022-08-21T15:22:40;1.40;;;0.83;;
51558;SDS011;61650;48.882;2.092;2022-08-21T15:25:06;4.33;;;0.90;;
51558;SDS011;61650;48.882;2.092;2022-08-21T15:27:32;2.33;;;1.00;;
51558;SDS011;61650;48.882;2.092;2022-08-21T15:29:59;1.50;;;0.70;;
51558;SDS011;61650;48.882;2.092;2022-08-21T15:32:25;2.70;;;0.90;;
51558;SDS011;61650;48.882;2.092;2022-08-21T15:34:54;1.20;;;0.80;;
51558;SDS011;61650;48.882;2.092;2022-08-21T15:37:21;1.43;;;1.00;;
51558;SDS011;61650;48.882;2.092;2022-08-21T15:39:47;3.53;;;0.90;;
51558;SDS011;61650;48.882;2.092;2022-08-21T15:42:14;1.40;;;0.80;;
51558;SDS011;61650;48.882;2.092;2022-08-21T15:44:40;1.13;;;0.80;;
51558;SDS011;61650;48.882;2.092;2022-08-21T15:47:11;1.10;;;1.00;;
51558;SDS011;61650;48.882;2.092;2022-08-21T15:49:42;1.50;;;0.90;;
51558;SDS011;61650;48.882;2.092;2022-08-21T15:52:11;1.30;;;1.00;;
51558;SDS011;61650;48.882;2.092;2022-08-21T15:54:41;3.27;;;1.20;;
51558;SDS011;61650;48.882;2.092;2022-08-21T15:57:06;1.83;;;1.20;;
51558;SDS011;61650;48.882;2.092;2022-08-21T15:59:42;2.93;;;0.90;;
51558;SDS011;61650;48.882;2.092;2022-08-21T16:02:24;1.57;;;1.00;;
51558;SDS011;61650;48.882;2.092;2022-08-21T16:07:38;1.80;;;1.30;;
51558;SDS011;61650;48.882;2.092;2022-08-21T16:10:05;1.60;;;1.20;;
51558;SDS011;61650;48.882;2.092;2022-08-21T16:12:32;1.93;;;1.10;;
51558;SDS011;61650;48.882;2.092;2022-08-21T16:15:03;2.20;;;1.23;;
51558;SDS011;61650;48.882;2.092;2022-08-21T16:17:33;1.90;;;1.10;;
51558;SDS011;61650;48.882;2.092;2022-08-21T16:20:00;1.87;;;1.00;;
51558;SDS011;61650;48.882;2.092;2022-08-21T16:22:32;2.70;;;1.10;;
51558;SDS011;61650;48.882;2.092;2022-08-21T16:24:57;1.77;;;1.30;;
51558;SDS011;61650;48.882;2.092;2022-08-21T16:27:23;2.67;;;1.30;;
51558;SDS011;61650;48.882;2.092;2022-08-21T16:29:48;2.43;;;1.20;;
51558;SDS011;61650;48.882;2.092;2022-08-21T16:32:14;1.50;;;1.10;;
51558;SDS011;61650;48.882;2.092;2022-08-21T16:34:42;2.70;;;1.30;;
51558;SDS011;61650;48.882;2.092;2022-08-21T16:37:12;1.50;;;1.20;;
51558;SDS011;61650;48.882;2.092;2022-08-21T16:39:39;2.43;;;1.40;;
51558;SDS011;61650;48.882;2.092;2022-08-21T16:42:04;2.90;;;1.30;;
51558;SDS011;61650;48.882;2.092;2022-08-21T16:44:31;3.03;;;1.20;;